sensor_id;sensor_type;location;lat;lon;timestamp;temperature;humidity
2997;DHT22;1508;48.744;9.110;2023-01-15T00:01:54;9.30;99.90
2997;DHT22;1508;48.744;9.110;2023-01-15T00:04:40;9.30;99.90
2997;DHT22;1508;48.744;9.110;2023-01-15T00:07:26;9.40;99.90
2997;DHT22;1508;48.744;9.110;2023-01-15T00:10:11;9.40;99.90
2997;DHT22;1508;48.744;9.110;2023-01-15T00:12:57;9.50;99.90
2997;DHT22;1508;48.744;9.110;2023-01-15T00:15:43;9.50;99.90
2997;DHT22;1508;48.744;9.110;2023-01-15T00:18:29;9.50;99.90
2997;DHT22;1508;48.744;9.110;2023-01-15T00:21:15;9.50;99.90
2997;DHT22;1508;48.744;9.110;2023-01-15T00:24:04;9.50;99.90
2997;DHT22;1508;48.744;9.110;2023-01-15T00:26:49;9.50;99.90
2997;DHT22;1508;48.744;9.110;2023-01-15T00:29:35;9.50;99.90
2997;DHT22;1508;48.744;9.110;2023-01-15T00:32:21;9.60;99.90
2997;DHT22;1508;48.744;9.110;2023-01-15T00:35:20;9.50;99.90
2997;DHT22;1508;48.744;9.110;2023-01-15T00:38:06;9.60;99.90
2997;DHT22;1508;48.744;9.110;2023-01-15T00:40:52;9.60;99.90
2997;DHT22;1508;48.744;9.110;2023-01-15T00:43:38;9.60;99.90
2997;DHT22;1508;48.744;9.110;2023-01-15T00:46:23;9.60;99.90
2997;DHT22;1508;48.744;9.110;2023-01-15T00:49:10;9.60;99.90
2997;DHT22;1508;48.744;9.110;2023-01-15T00:51:55;9.60;99.90
2997;DHT22;1508;48.744;9.110;2023-01-15T00:54:41;9.60;99.90
2997;DHT22;1508;48.744;9.110;2023-01-15T00:57:27;9.50;99.90
2997;DHT22;1508;48.744;9.110;2023-01-15T01:00:13;9.60;99.90
2997;DHT22;1508;48.744;9.110;2023-01-15T01:02:59;9.50;99.90
2997;DHT22;1508;48.744;9.110;2023-01-15T01:05:45;9.60;99.90
2997;DHT22;1508;48.744;9.110;2023-01-15T01:08:31;9.60;99.90
2997;DHT22;1508;48.744;9.110;2023-01-15T01:11:19;9.50;99.90
2997;DHT22;1508;48.744;9.110;2023-01-15T01:14:06;9.50;99.90
2997;DHT22;1508;48.744;9.110;2023-01-15T01:16:51;9.60;99.90
2997;DHT22;1508;48.744;9.110;2023-01-15T01:19:37;9.60;99.90
2997;DHT22;1508;48.744;9.110;2023-01-15T01:22:23;9.60;99.90
2997;DHT22;1508;48.744;9.110;2023-01-15T01:25:09;9.50;99.90
2997;DHT22;1508;48.744;9.110;2023-01-15T01:27:55;9.50;99.90
2997;DHT22;1508;48.744;9.110;2023-01-15T01:30:41;9.50;99.90
2997;DHT22;1508;48.744;9.110;2023-01-15T01:33:27;9.50;99.90
2997;DHT22;1508;48.744;9.110;2023-01-15T01:36:12;9.60;99.90
2997;DHT22;1508;48.744;9.110;2023-01-15T01:38:59;9.60;99.90
2997;DHT22;1508;48.744;9.110;2023-01-15T01:41:46;9.60;99.90
2997;DHT22;1508;48.744;9.110;2023-01-15T01:47:24;9.70;99.90
2997;DHT22;1508;48.744;9.110;2023-01-15T01:50:13;9.70;99.90
2997;DHT22;1508;48.744;9.110;2023-01-15T01:53:10;9.80;99.90
2997;DHT22;1508;48.744;9.110;2023-01-15T01:55:57;9.80;99.90
2997;DHT22;1508;48.744;9.110;2023-01-15T01:58:47;9.80;99.90
2997;DHT22;1508;48.744;9.110;2023-01-15T02:01:34;9.80;99.90
2997;DHT22;1508;48.744;9.110;2023-01-15T02:04:21;9.90;99.90
2997;DHT22;1508;48.744;9.110;2023-01-15T02:07:10;9.90;99.90
2997;DHT22;1508;48.744;9.110;2023-01-15T02:09:56;9.90;99.90
2997;DHT22;1508;48.744;9.110;2023-01-15T02:12:45;9.90;99.90
2997;DHT22;1508;48.744;9.110;2023-01-15T02:15:44;10.00;99.90
2997;DHT22;1508;48.744;9.110;2023-01-15T02:21:26;10.10;99.90
2997;DHT22;1508;48.744;9.110;2023-01-15T02:24:30;10.10;99.90
2997;DHT22;1508;48.744;9.110;2023-01-15T02:27:23;10.10;99.90
2997;DHT22;1508;48.744;9.110;2023-01-15T02:30:16;10.20;99.90
2997;DHT22;1508;48.744;9.110;2023-01-15T02:33:08;10.10;99.90
2997;DHT22;1508;48.744;9.110;2023-01-15T02:35:58;10.20;99.90
2997;DHT22;1508;48.744;9.110;2023-01-15T02:38:46;10.20;99.90
2997;DHT22;1508;48.744;9.110;2023-01-15T02:41:36;10.20;99.90
2997;DHT22;1508;48.744;9.110;2023-01-15T02:44:25;10.20;99.90
2997;DHT22;1508;48.744;9.110;2023-01-15T02:47:12;10.20;99.90
2997;DHT22;1508;48.744;9.110;2023-01-15T02:50:02;10.30;99.90
2997;DHT22;1508;48.744;9.110;2023-01-15T02:52:54;10.30;99.90
2997;DHT22;1508;48.744;9.110;2023-01-15T02:55:44;10.30;99.90
2997;DHT22;1508;48.744;9.110;2023-01-15T02:58:34;10.40;99.90
2997;DHT22;1508;48.744;9.110;2023-01-15T03:01:27;10.40;99.90
2997;DHT22;1508;48.744;9.110;2023-01-15T03:04:33;10.40;99.90
2997;DHT22;1508;48.744;9.110;2023-01-15T03:07:41;10.40;99.90
2997;DHT22;1508;48.744;9.110;2023-01-15T03:10:49;10.40;99.90
2997;DHT22;1508;48.744;9.110;2023-01-15T03:16:34;10.50;99.90
2997;DHT22;1508;48.744;9.110;2023-01-15T03:19:28;10.50;99.90
2997;DHT22;1508;48.744;9.110;2023-01-15T03:22:30;10.60;99.90
2997;DHT22;1508;48.744;9.110;2023-01-15T03:25:20;10.60;99.90
2997;DHT22;1508;48.744;9.110;2023-01-15T03:28:09;10.70;99.90
2997;DHT22;1508;48.744;9.110;2023-01-15T03:30:57;10.70;99.90
2997;DHT22;1508;48.744;9.110;2023-01-15T03:33:43;10.80;99.90
2997;DHT22;1508;48.744;9.110;2023-01-15T03:36:29;10.80;99.90
2997;DHT22;1508;48.744;9.110;2023-01-15T03:39:15;10.90;99.90
2997;DHT22;1508;48.744;9.110;2023-01-15T03:42:29;11.00;99.90
2997;DHT22;1508;48.744;9.110;2023-01-15T03:45:25;11.00;99.90
2997;DHT22;1508;48.744;9.110;2023-01-15T03:48:33;11.00;99.90
2997;DHT22;1508;48.744;9.110;2023-01-15T03:54:30;11.00;99.90
2997;DHT22;1508;48.744;9.110;2023-01-15T04:00:26;11.10;99.90
2997;DHT22;1508;48.744;9.110;2023-01-15T04:03:13;11.10;99.90
2997;DHT22;1508;48.744;9.110;2023-01-15T04:06:01;11.10;99.90
2997;DHT22;1508;48.744;9.110;2023-01-15T04:08:47;11.10;99.90
2997;DHT22;1508;48.744;9.110;2023-01-15T04:11:33;11.10;99.90
2997;DHT22;1508;48.744;9.110;2023-01-15T04:14:19;11.10;99.90
2997;DHT22;1508;48.744;9.110;2023-01-15T04:17:05;11.20;99.90
2997;DHT22;1508;48.744;9.110;2023-01-15T04:19:51;11.20;99.90
2997;DHT22;1508;48.744;9.110;2023-01-15T04:22:37;11.20;99.90
2997;DHT22;1508;48.744;9.110;2023-01-15T04:25:23;11.20;99.90
2997;DHT22;1508;48.744;9.110;2023-01-15T04:28:09;11.20;99.90
2997;DHT22;1508;48.744;9.110;2023-01-15T04:30:56;11.20;99.90
2997;DHT22;1508;48.744;9.110;2023-01-15T04:33:42;11.20;99.90
2997;DHT22;1508;48.744;9.110;2023-01-15T04:36:28;11.20;99.90
2997;DHT22;1508;48.744;9.110;2023-01-15T04:39:14;11.20;99.90
2997;DHT22;1508;48.744;9.110;2023-01-15T04:42:00;11.20;99.90
2997;DHT22;1508;48.744;9.110;2023-01-15T04:44:46;11.20;99.90
2997;DHT22;1508;48.744;9.110;2023-01-15T04:47:31;11.20;99.90
2997;DHT22;1508;48.744;9.110;2023-01-15T04:50:17;11.20;99.90
2997;DHT22;1508;48.744;9.110;2023-01-15T04:53:03;11.20;99.90
2997;DHT22;1508;48.744;9.110;2023-01-15T04:55:49;11.20;99.90
2997;DHT22;1508;48.744;9.110;2023-01-15T04:58:35;11.20;99.90
2997;DHT22;1508;48.744;9.110;2023-01-15T05:01:21;11.10;99.90
2997;DHT22;1508;48.744;9.110;2023-01-15T05:04:07;11.10;99.90
2997;DHT22;1508;48.744;9.110;2023-01-15T05:06:53;11.10;99.90
2997;DHT22;1508;48.744;9.110;2023-01-15T05:09:38;11.10;99.90
2997;DHT22;1508;48.744;9.110;2023-01-15T05:12:24;11.10;99.90
2997;DHT22;1508;48.744;9.110;2023-01-15T05:15:10;11.10;99.90
2997;DHT22;1508;48.744;9.110;2023-01-15T05:17:56;11.10;99.90
2997;DHT22;1508;48.744;9.110;2023-01-15T05:20:42;11.10;99.90
2997;DHT22;1508;48.744;9.110;2023-01-15T05:23:28;11.20;99.90
2997;DHT22;1508;48.744;9.110;2023-01-15T05:26:14;11.10;99.90
2997;DHT22;1508;48.744;9.110;2023-01-15T05:29:00;11.10;99.90
2997;DHT22;1508;48.744;9.110;2023-01-15T05:31:46;10.60;99.90
2997;DHT22;1508;48.744;9.110;2023-01-15T05:34:32;9.50;99.90
2997;DHT22;1508;48.744;9.110;2023-01-15T05:37:18;8.80;99.90
2997;DHT22;1508;48.744;9.110;2023-01-15T05:40:04;8.40;99.90
2997;DHT22;1508;48.744;9.110;2023-01-15T05:42:50;7.90;99.90
2997;DHT22;1508;48.744;9.110;2023-01-15T05:45:36;7.70;99.90
2997;DHT22;1508;48.744;9.110;2023-01-15T05:48:22;7.50;99.90
2997;DHT22;1508;48.744;9.110;2023-01-15T05:51:07;7.40;99.90
2997;DHT22;1508;48.744;9.110;2023-01-15T05:53:55;7.20;99.90
2997;DHT22;1508;48.744;9.110;2023-01-15T05:56:41;7.10;99.90
2997;DHT22;1508;48.744;9.110;2023-01-15T05:59:30;7.00;99.90
2997;DHT22;1508;48.744;9.110;2023-01-15T06:02:16;6.90;99.90
2997;DHT22;1508;48.744;9.110;2023-01-15T06:05:02;6.80;99.90
2997;DHT22;1508;48.744;9.110;2023-01-15T06:07:49;6.80;99.90
2997;DHT22;1508;48.744;9.110;2023-01-15T06:10:35;6.80;99.90
2997;DHT22;1508;48.744;9.110;2023-01-15T06:13:21;6.80;99.90
2997;DHT22;1508;48.744;9.110;2023-01-15T06:16:07;6.70;99.90
2997;DHT22;1508;48.744;9.110;2023-01-15T06:18:54;6.70;99.90
2997;DHT22;1508;48.744;9.110;2023-01-15T06:21:40;6.60;99.90
2997;DHT22;1508;48.744;9.110;2023-01-15T06:24:26;6.60;99.90
2997;DHT22;1508;48.744;9.110;2023-01-15T06:27:12;6.60;99.90
2997;DHT22;1508;48.744;9.110;2023-01-15T06:29:57;6.60;99.90
2997;DHT22;1508;48.744;9.110;2023-01-15T06:32:43;6.50;99.90
2997;DHT22;1508;48.744;9.110;2023-01-15T06:35:29;6.50;99.90
2997;DHT22;1508;48.744;9.110;2023-01-15T06:38:15;6.50;99.90
2997;DHT22;1508;48.744;9.110;2023-01-15T06:41:03;6.50;99.90
2997;DHT22;1508;48.744;9.110;2023-01-15T06:43:49;6.50;99.90
2997;DHT22;1508;48.744;9.110;2023-01-15T06:46:35;6.40;99.90
2997;DHT22;1508;48.744;9.110;2023-01-15T06:49:21;6.30;99.90
2997;DHT22;1508;48.744;9.110;2023-01-15T06:52:07;6.30;99.90
2997;DHT22;1508;48.744;9.110;2023-01-15T06:54:53;6.20;99.90
2997;DHT22;1508;48.744;9.110;2023-01-15T06:57:40;6.10;99.90
2997;DHT22;1508;48.744;9.110;2023-01-15T07:00:25;6.10;99.90
2997;DHT22;1508;48.744;9.110;2023-01-15T07:03:11;6.10;99.90
2997;DHT22;1508;48.744;9.110;2023-01-15T07:05:57;6.00;99.90
2997;DHT22;1508;48.744;9.110;2023-01-15T07:08:43;5.90;99.90
2997;DHT22;1508;48.744;9.110;2023-01-15T07:11:29;5.90;99.90
2997;DHT22;1508;48.744;9.110;2023-01-15T07:14:25;5.80;99.90
2997;DHT22;1508;48.744;9.110;2023-01-15T07:17:11;5.70;99.90
2997;DHT22;1508;48.744;9.110;2023-01-15T07:19:57;5.60;99.90
2997;DHT22;1508;48.744;9.110;2023-01-15T07:22:43;5.50;99.90
2997;DHT22;1508;48.744;9.110;2023-01-15T07:25:29;5.50;99.90
2997;DHT22;1508;48.744;9.110;2023-01-15T07:28:15;5.40;99.90
2997;DHT22;1508;48.744;9.110;2023-01-15T07:31:01;5.30;99.90
2997;DHT22;1508;48.744;9.110;2023-01-15T07:33:47;5.20;99.90
2997;DHT22;1508;48.744;9.110;2023-01-15T07:36:32;5.20;99.90
2997;DHT22;1508;48.744;9.110;2023-01-15T07:39:18;5.20;99.90
2997;DHT22;1508;48.744;9.110;2023-01-15T07:42:04;5.20;99.90
2997;DHT22;1508;48.744;9.110;2023-01-15T07:44:50;5.20;99.90
2997;DHT22;1508;48.744;9.110;2023-01-15T07:47:37;5.10;99.90
2997;DHT22;1508;48.744;9.110;2023-01-15T07:50:23;5.20;99.90
2997;DHT22;1508;48.744;9.110;2023-01-15T07:53:09;5.20;99.90
2997;DHT22;1508;48.744;9.110;2023-01-15T07:55:55;5.20;99.90
2997;DHT22;1508;48.744;9.110;2023-01-15T07:58:41;5.20;99.90
2997;DHT22;1508;48.744;9.110;2023-01-15T08:01:27;5.10;99.90
2997;DHT22;1508;48.744;9.110;2023-01-15T08:04:13;5.10;99.90
2997;DHT22;1508;48.744;9.110;2023-01-15T08:07:03;5.10;99.90
2997;DHT22;1508;48.744;9.110;2023-01-15T08:09:49;5.10;99.90
2997;DHT22;1508;48.744;9.110;2023-01-15T08:12:35;5.20;99.90
2997;DHT22;1508;48.744;9.110;2023-01-15T08:15:20;5.10;99.90
2997;DHT22;1508;48.744;9.110;2023-01-15T08:18:06;5.10;99.90
2997;DHT22;1508;48.744;9.110;2023-01-15T08:20:52;5.10;99.90
2997;DHT22;1508;48.744;9.110;2023-01-15T08:23:38;5.20;99.90
2997;DHT22;1508;48.744;9.110;2023-01-15T08:26:24;5.10;99.90
2997;DHT22;1508;48.744;9.110;2023-01-15T08:29:10;5.10;99.90
2997;DHT22;1508;48.744;9.110;2023-01-15T08:31:55;5.10;99.90
2997;DHT22;1508;48.744;9.110;2023-01-15T08:34:41;5.10;99.90
2997;DHT22;1508;48.744;9.110;2023-01-15T08:37:27;5.10;99.90
2997;DHT22;1508;48.744;9.110;2023-01-15T08:40:13;5.10;99.90
2997;DHT22;1508;48.744;9.110;2023-01-15T08:42:59;5.10;99.90
2997;DHT22;1508;48.744;9.110;2023-01-15T08:45:44;5.10;99.90
2997;DHT22;1508;48.744;9.110;2023-01-15T08:48:31;5.20;99.90
2997;DHT22;1508;48.744;9.110;2023-01-15T08:51:17;5.30;99.90
2997;DHT22;1508;48.744;9.110;2023-01-15T08:54:03;5.30;99.90
2997;DHT22;1508;48.744;9.110;2023-01-15T08:56:49;5.30;99.90
2997;DHT22;1508;48.744;9.110;2023-01-15T08:59:35;5.30;99.90
2997;DHT22;1508;48.744;9.110;2023-01-15T09:02:21;5.30;99.90
2997;DHT22;1508;48.744;9.110;2023-01-15T09:05:07;5.30;99.90
2997;DHT22;1508;48.744;9.110;2023-01-15T09:07:53;5.20;99.90
2997;DHT22;1508;48.744;9.110;2023-01-15T09:10:39;5.20;99.90
2997;DHT22;1508;48.744;9.110;2023-01-15T09:13:26;5.20;99.90
2997;DHT22;1508;48.744;9.110;2023-01-15T09:16:12;5.30;99.90
2997;DHT22;1508;48.744;9.110;2023-01-15T09:18:58;5.40;99.90
2997;DHT22;1508;48.744;9.110;2023-01-15T09:21:44;5.50;99.90
2997;DHT22;1508;48.744;9.110;2023-01-15T09:24:29;5.60;99.90
2997;DHT22;1508;48.744;9.110;2023-01-15T09:27:15;5.70;99.90
2997;DHT22;1508;48.744;9.110;2023-01-15T09:30:01;5.70;99.90
2997;DHT22;1508;48.744;9.110;2023-01-15T09:32:47;5.60;99.90
2997;DHT22;1508;48.744;9.110;2023-01-15T09:35:33;5.60;99.90
2997;DHT22;1508;48.744;9.110;2023-01-15T09:38:20;5.50;99.90
2997;DHT22;1508;48.744;9.110;2023-01-15T09:41:10;5.50;99.90
2997;DHT22;1508;48.744;9.110;2023-01-15T09:44:23;5.60;99.90
2997;DHT22;1508;48.744;9.110;2023-01-15T09:47:21;5.50;99.90
2997;DHT22;1508;48.744;9.110;2023-01-15T09:50:20;5.60;99.90
2997;DHT22;1508;48.744;9.110;2023-01-15T09:53:36;5.50;99.90
2997;DHT22;1508;48.744;9.110;2023-01-15T09:56:28;5.50;99.90
2997;DHT22;1508;48.744;9.110;2023-01-15T09:59:35;5.40;99.90
2997;DHT22;1508;48.744;9.110;2023-01-15T10:05:22;5.40;99.90
2997;DHT22;1508;48.744;9.110;2023-01-15T10:08:16;5.40;99.90
2997;DHT22;1508;48.744;9.110;2023-01-15T10:14:08;5.70;99.90
2997;DHT22;1508;48.744;9.110;2023-01-15T10:16:58;5.60;99.90
2997;DHT22;1508;48.744;9.110;2023-01-15T10:19:44;5.50;99.90
2997;DHT22;1508;48.744;9.110;2023-01-15T10:22:52;5.50;99.90
2997;DHT22;1508;48.744;9.110;2023-01-15T10:25:51;5.60;99.90
2997;DHT22;1508;48.744;9.110;2023-01-15T10:28:59;5.50;99.90
2997;DHT22;1508;48.744;9.110;2023-01-15T10:31:49;5.40;99.90
2997;DHT22;1508;48.744;9.110;2023-01-15T10:37:55;5.20;99.90
2997;DHT22;1508;48.744;9.110;2023-01-15T10:43:56;5.10;99.90
2997;DHT22;1508;48.744;9.110;2023-01-15T10:46:50;5.00;99.90
2997;DHT22;1508;48.744;9.110;2023-01-15T10:49:38;4.90;99.90
2997;DHT22;1508;48.744;9.110;2023-01-15T10:52:32;4.90;99.90
2997;DHT22;1508;48.744;9.110;2023-01-15T10:55:23;5.10;99.90
2997;DHT22;1508;48.744;9.110;2023-01-15T10:58:24;5.00;99.90
2997;DHT22;1508;48.744;9.110;2023-01-15T11:01:16;4.90;99.90
2997;DHT22;1508;48.744;9.110;2023-01-15T11:04:02;4.50;99.90
2997;DHT22;1508;48.744;9.110;2023-01-15T11:06:48;4.20;99.90
2997;DHT22;1508;48.744;9.110;2023-01-15T11:09:35;4.00;99.90
2997;DHT22;1508;48.744;9.110;2023-01-15T11:12:24;3.90;99.90
2997;DHT22;1508;48.744;9.110;2023-01-15T11:15:21;3.80;99.90
2997;DHT22;1508;48.744;9.110;2023-01-15T11:18:54;3.80;99.90
2997;DHT22;1508;48.744;9.110;2023-01-15T11:21:22;3.80;99.90
2997;DHT22;1508;48.744;9.110;2023-01-15T11:24:14;3.70;99.90
2997;DHT22;1508;48.744;9.110;2023-01-15T11:27:00;3.70;99.90
2997;DHT22;1508;48.744;9.110;2023-01-15T11:29:51;3.70;99.90
2997;DHT22;1508;48.744;9.110;2023-01-15T11:32:37;3.60;99.90
2997;DHT22;1508;48.744;9.110;2023-01-15T11:35:23;3.50;99.90
2997;DHT22;1508;48.744;9.110;2023-01-15T11:38:13;3.50;99.90
2997;DHT22;1508;48.744;9.110;2023-01-15T11:41:00;3.40;99.90
2997;DHT22;1508;48.744;9.110;2023-01-15T11:43:56;3.30;99.90
2997;DHT22;1508;48.744;9.110;2023-01-15T11:46:45;3.20;99.90
2997;DHT22;1508;48.744;9.110;2023-01-15T11:49:31;3.20;99.90
2997;DHT22;1508;48.744;9.110;2023-01-15T11:52:21;3.10;99.90
2997;DHT22;1508;48.744;9.110;2023-01-15T11:55:14;3.00;99.90
2997;DHT22;1508;48.744;9.110;2023-01-15T11:58:02;3.00;99.90
2997;DHT22;1508;48.744;9.110;2023-01-15T12:00:49;3.10;99.90
2997;DHT22;1508;48.744;9.110;2023-01-15T12:03:39;3.10;99.90
2997;DHT22;1508;48.744;9.110;2023-01-15T12:06:26;3.00;99.90
2997;DHT22;1508;48.744;9.110;2023-01-15T12:12:54;3.00;99.90
2997;DHT22;1508;48.744;9.110;2023-01-15T12:15:49;3.00;99.90
2997;DHT22;1508;48.744;9.110;2023-01-15T12:22:12;3.20;99.90
2997;DHT22;1508;48.744;9.110;2023-01-15T12:28:17;3.20;99.90
2997;DHT22;1508;48.744;9.110;2023-01-15T12:31:11;3.30;99.90
2997;DHT22;1508;48.744;9.110;2023-01-15T12:37:02;3.40;99.90
2997;DHT22;1508;48.744;9.110;2023-01-15T12:42:54;3.60;99.90
2997;DHT22;1508;48.744;9.110;2023-01-15T12:45:51;3.70;99.90
2997;DHT22;1508;48.744;9.110;2023-01-15T12:48:41;3.80;99.90
2997;DHT22;1508;48.744;9.110;2023-01-15T12:51:34;3.80;99.90
2997;DHT22;1508;48.744;9.110;2023-01-15T12:54:27;4.00;99.90
2997;DHT22;1508;48.744;9.110;2023-01-15T12:57:33;4.00;99.90
2997;DHT22;1508;48.744;9.110;2023-01-15T13:00:23;4.10;99.90
2997;DHT22;1508;48.744;9.110;2023-01-15T13:03:26;4.10;99.90
2997;DHT22;1508;48.744;9.110;2023-01-15T13:06:12;4.30;99.90
2997;DHT22;1508;48.744;9.110;2023-01-15T13:12:12;4.30;99.90
2997;DHT22;1508;48.744;9.110;2023-01-15T13:15:00;4.40;99.90
2997;DHT22;1508;48.744;9.110;2023-01-15T13:18:20;4.40;99.90
2997;DHT22;1508;48.744;9.110;2023-01-15T13:21:13;4.60;99.90
2997;DHT22;1508;48.744;9.110;2023-01-15T13:24:12;4.60;99.90
2997;DHT22;1508;48.744;9.110;2023-01-15T13:33:41;4.50;99.90
2997;DHT22;1508;48.744;9.110;2023-01-15T13:36:38;4.50;99.90
2997;DHT22;1508;48.744;9.110;2023-01-15T13:39:34;4.50;99.90
2997;DHT22;1508;48.744;9.110;2023-01-15T13:42:24;4.50;99.90
2997;DHT22;1508;48.744;9.110;2023-01-15T13:48:11;4.50;99.90
2997;DHT22;1508;48.744;9.110;2023-01-15T13:51:00;4.30;99.90
2997;DHT22;1508;48.744;9.110;2023-01-15T13:53:48;4.30;99.90
2997;DHT22;1508;48.744;9.110;2023-01-15T13:56:34;4.30;99.90
2997;DHT22;1508;48.744;9.110;2023-01-15T13:59:43;4.40;99.90
2997;DHT22;1508;48.744;9.110;2023-01-15T14:02:31;4.50;99.90
2997;DHT22;1508;48.744;9.110;2023-01-15T14:05:34;4.50;99.90
2997;DHT22;1508;48.744;9.110;2023-01-15T14:08:25;4.50;99.90
2997;DHT22;1508;48.744;9.110;2023-01-15T14:11:38;4.60;99.90
2997;DHT22;1508;48.744;9.110;2023-01-15T14:18:01;4.50;99.90
2997;DHT22;1508;48.744;9.110;2023-01-15T14:27:08;4.50;99.90
2997;DHT22;1508;48.744;9.110;2023-01-15T14:35:36;4.40;99.90
2997;DHT22;1508;48.744;9.110;2023-01-15T14:38:26;4.50;99.90
2997;DHT22;1508;48.744;9.110;2023-01-15T14:41:12;4.40;99.90
2997;DHT22;1508;48.744;9.110;2023-01-15T14:43:59;4.40;99.90
2997;DHT22;1508;48.744;9.110;2023-01-15T14:46:46;4.40;99.90
2997;DHT22;1508;48.744;9.110;2023-01-15T14:49:44;4.40;99.90
2997;DHT22;1508;48.744;9.110;2023-01-15T14:52:31;4.40;99.90
2997;DHT22;1508;48.744;9.110;2023-01-15T14:55:18;4.40;99.90
2997;DHT22;1508;48.744;9.110;2023-01-15T14:58:27;4.40;99.90
2997;DHT22;1508;48.744;9.110;2023-01-15T15:04:42;4.40;99.90
2997;DHT22;1508;48.744;9.110;2023-01-15T15:07:33;4.40;99.90
2997;DHT22;1508;48.744;9.110;2023-01-15T15:10:24;4.40;99.90
2997;DHT22;1508;48.744;9.110;2023-01-15T15:13:49;4.40;99.90
2997;DHT22;1508;48.744;9.110;2023-01-15T15:16:45;4.40;99.90
2997;DHT22;1508;48.744;9.110;2023-01-15T15:19:37;4.30;99.90
2997;DHT22;1508;48.744;9.110;2023-01-15T15:22:27;4.30;99.90
2997;DHT22;1508;48.744;9.110;2023-01-15T15:25:21;4.30;99.90
2997;DHT22;1508;48.744;9.110;2023-01-15T15:28:09;4.20;99.90
2997;DHT22;1508;48.744;9.110;2023-01-15T15:30:56;4.20;99.90
2997;DHT22;1508;48.744;9.110;2023-01-15T15:33:44;4.10;99.90
2997;DHT22;1508;48.744;9.110;2023-01-15T15:36:33;4.10;99.90
2997;DHT22;1508;48.744;9.110;2023-01-15T15:39:49;4.00;99.90
2997;DHT22;1508;48.744;9.110;2023-01-15T15:42:46;4.00;99.90
2997;DHT22;1508;48.744;9.110;2023-01-15T15:45:34;4.00;99.90
2997;DHT22;1508;48.744;9.110;2023-01-15T15:48:27;3.90;99.90
2997;DHT22;1508;48.744;9.110;2023-01-15T15:54:09;3.80;99.90
2997;DHT22;1508;48.744;9.110;2023-01-15T15:57:00;3.80;99.90
2997;DHT22;1508;48.744;9.110;2023-01-15T15:59:49;3.80;99.90
2997;DHT22;1508;48.744;9.110;2023-01-15T16:02:38;3.70;99.90
2997;DHT22;1508;48.744;9.110;2023-01-15T16:05:26;3.70;99.90
2997;DHT22;1508;48.744;9.110;2023-01-15T16:08:18;3.60;99.90
2997;DHT22;1508;48.744;9.110;2023-01-15T16:11:06;3.60;99.90
2997;DHT22;1508;48.744;9.110;2023-01-15T16:13:56;3.60;99.90
2997;DHT22;1508;48.744;9.110;2023-01-15T16:16:42;3.50;99.90
2997;DHT22;1508;48.744;9.110;2023-01-15T16:19:29;3.50;99.90
2997;DHT22;1508;48.744;9.110;2023-01-15T16:22:16;3.40;99.90
2997;DHT22;1508;48.744;9.110;2023-01-15T16:25:02;3.40;99.90
2997;DHT22;1508;48.744;9.110;2023-01-15T16:27:49;3.40;99.90
2997;DHT22;1508;48.744;9.110;2023-01-15T16:30:35;3.30;99.90
2997;DHT22;1508;48.744;9.110;2023-01-15T16:33:21;3.30;99.90
2997;DHT22;1508;48.744;9.110;2023-01-15T16:36:07;3.30;99.90
2997;DHT22;1508;48.744;9.110;2023-01-15T16:38:54;3.30;99.90
2997;DHT22;1508;48.744;9.110;2023-01-15T16:41:40;3.30;99.90
2997;DHT22;1508;48.744;9.110;2023-01-15T16:44:34;3.30;99.90
2997;DHT22;1508;48.744;9.110;2023-01-15T16:47:23;3.30;99.90
2997;DHT22;1508;48.744;9.110;2023-01-15T16:50:25;3.20;99.90
2997;DHT22;1508;48.744;9.110;2023-01-15T16:53:38;3.30;99.90
2997;DHT22;1508;48.744;9.110;2023-01-15T16:56:47;3.30;99.90
2997;DHT22;1508;48.744;9.110;2023-01-15T17:02:18;3.30;99.90
2997;DHT22;1508;48.744;9.110;2023-01-15T17:05:17;3.20;99.90
2997;DHT22;1508;48.744;9.110;2023-01-15T17:08:18;3.20;99.90
2997;DHT22;1508;48.744;9.110;2023-01-15T17:11:06;3.20;99.90
2997;DHT22;1508;48.744;9.110;2023-01-15T17:14:19;3.20;99.90
2997;DHT22;1508;48.744;9.110;2023-01-15T17:17:26;3.20;99.90
2997;DHT22;1508;48.744;9.110;2023-01-15T17:20:13;3.20;99.90
2997;DHT22;1508;48.744;9.110;2023-01-15T17:22:59;3.20;99.90
2997;DHT22;1508;48.744;9.110;2023-01-15T17:25:46;3.20;99.90
2997;DHT22;1508;48.744;9.110;2023-01-15T17:28:32;3.10;99.90
2997;DHT22;1508;48.744;9.110;2023-01-15T17:31:27;3.10;99.90
2997;DHT22;1508;48.744;9.110;2023-01-15T17:34:13;3.10;99.90
2997;DHT22;1508;48.744;9.110;2023-01-15T17:36:59;3.10;99.90
2997;DHT22;1508;48.744;9.110;2023-01-15T17:39:45;3.10;99.90
2997;DHT22;1508;48.744;9.110;2023-01-15T17:42:31;3.10;99.90
2997;DHT22;1508;48.744;9.110;2023-01-15T17:45:24;3.10;99.90
2997;DHT22;1508;48.744;9.110;2023-01-15T17:48:11;3.10;99.90
2997;DHT22;1508;48.744;9.110;2023-01-15T17:51:01;3.10;99.90
2997;DHT22;1508;48.744;9.110;2023-01-15T17:53:47;3.10;99.90
2997;DHT22;1508;48.744;9.110;2023-01-15T17:56:33;3.10;99.90
2997;DHT22;1508;48.744;9.110;2023-01-15T17:59:19;3.10;99.90
2997;DHT22;1508;48.744;9.110;2023-01-15T18:02:12;3.10;99.90
2997;DHT22;1508;48.744;9.110;2023-01-15T18:04:59;3.00;99.90
2997;DHT22;1508;48.744;9.110;2023-01-15T18:07:45;3.10;99.90
2997;DHT22;1508;48.744;9.110;2023-01-15T18:10:32;3.10;99.90
2997;DHT22;1508;48.744;9.110;2023-01-15T18:13:18;3.10;99.90
2997;DHT22;1508;48.744;9.110;2023-01-15T18:16:04;3.10;99.90
2997;DHT22;1508;48.744;9.110;2023-01-15T18:18:51;3.10;99.90
2997;DHT22;1508;48.744;9.110;2023-01-15T18:21:39;3.10;99.90
2997;DHT22;1508;48.744;9.110;2023-01-15T18:24:25;3.10;99.90
2997;DHT22;1508;48.744;9.110;2023-01-15T18:27:10;3.10;99.90
2997;DHT22;1508;48.744;9.110;2023-01-15T18:29:57;3.10;99.90
2997;DHT22;1508;48.744;9.110;2023-01-15T18:32:43;3.10;99.90
2997;DHT22;1508;48.744;9.110;2023-01-15T18:35:29;3.10;99.90
2997;DHT22;1508;48.744;9.110;2023-01-15T18:38:15;3.10;99.90
2997;DHT22;1508;48.744;9.110;2023-01-15T18:41:11;3.10;99.90
2997;DHT22;1508;48.744;9.110;2023-01-15T18:43:57;3.10;99.90
2997;DHT22;1508;48.744;9.110;2023-01-15T18:46:43;3.00;99.90
2997;DHT22;1508;48.744;9.110;2023-01-15T18:49:29;3.00;99.90
2997;DHT22;1508;48.744;9.110;2023-01-15T18:52:16;3.00;99.90
2997;DHT22;1508;48.744;9.110;2023-01-15T18:55:02;3.00;99.90
2997;DHT22;1508;48.744;9.110;2023-01-15T18:57:48;3.10;99.90
2997;DHT22;1508;48.744;9.110;2023-01-15T19:00:34;3.10;99.90
2997;DHT22;1508;48.744;9.110;2023-01-15T19:03:20;3.10;99.90
2997;DHT22;1508;48.744;9.110;2023-01-15T19:06:09;3.10;99.90
2997;DHT22;1508;48.744;9.110;2023-01-15T19:08:55;3.10;99.90
2997;DHT22;1508;48.744;9.110;2023-01-15T19:11:41;3.10;99.90
2997;DHT22;1508;48.744;9.110;2023-01-15T19:14:27;3.10;99.90
2997;DHT22;1508;48.744;9.110;2023-01-15T19:17:15;3.10;99.90
2997;DHT22;1508;48.744;9.110;2023-01-15T19:20:01;3.10;99.90
2997;DHT22;1508;48.744;9.110;2023-01-15T19:22:47;3.10;99.90
2997;DHT22;1508;48.744;9.110;2023-01-15T19:25:41;3.10;99.90
2997;DHT22;1508;48.744;9.110;2023-01-15T19:28:28;3.10;99.90
2997;DHT22;1508;48.744;9.110;2023-01-15T19:31:14;3.00;99.90
2997;DHT22;1508;48.744;9.110;2023-01-15T19:34:00;3.00;99.90
2997;DHT22;1508;48.744;9.110;2023-01-15T19:36:46;3.00;99.90
2997;DHT22;1508;48.744;9.110;2023-01-15T19:39:32;3.00;99.90
2997;DHT22;1508;48.744;9.110;2023-01-15T19:42:18;3.00;99.90
2997;DHT22;1508;48.744;9.110;2023-01-15T19:45:05;2.90;99.90
2997;DHT22;1508;48.744;9.110;2023-01-15T19:47:51;2.90;99.90
2997;DHT22;1508;48.744;9.110;2023-01-15T19:50:42;2.80;99.90
2997;DHT22;1508;48.744;9.110;2023-01-15T19:53:27;2.80;99.90
2997;DHT22;1508;48.744;9.110;2023-01-15T19:56:13;2.80;99.90
2997;DHT22;1508;48.744;9.110;2023-01-15T19:58:59;2.70;99.90
2997;DHT22;1508;48.744;9.110;2023-01-15T20:01:45;2.70;99.90